sensor_id;sensor_type;location;lat;lon;timestamp;temperature;humidity
7174;DHT22;3628;48.654;8.932;2023-04-03T00:01:24;3.30;99.90
7174;DHT22;3628;48.654;8.932;2023-04-03T00:03:50;3.40;99.90
7174;DHT22;3628;48.654;8.932;2023-04-03T00:06:17;3.40;99.90
7174;DHT22;3628;48.654;8.932;2023-04-03T00:08:42;3.40;99.90
7174;DHT22;3628;48.654;8.932;2023-04-03T00:11:08;3.40;99.90
7174;DHT22;3628;48.654;8.932;2023-04-03T00:13:35;3.40;99.90
7174;DHT22;3628;48.654;8.932;2023-04-03T00:16:01;3.50;99.90
7174;DHT22;3628;48.654;8.932;2023-04-03T00:18:28;3.40;99.90
7174;DHT22;3628;48.654;8.932;2023-04-03T00:20:54;3.40;99.90
7174;DHT22;3628;48.654;8.932;2023-04-03T00:23:19;3.40;99.90
7174;DHT22;3628;48.654;8.932;2023-04-03T00:25:45;3.40;99.90
7174;DHT22;3628;48.654;8.932;2023-04-03T00:28:10;3.50;99.90
7174;DHT22;3628;48.654;8.932;2023-04-03T00:30:36;3.50;99.90
7174;DHT22;3628;48.654;8.932;2023-04-03T00:33:02;3.50;99.90
7174;DHT22;3628;48.654;8.932;2023-04-03T00:35:28;3.50;99.90
7174;DHT22;3628;48.654;8.932;2023-04-03T00:37:55;3.50;99.90
7174;DHT22;3628;48.654;8.932;2023-04-03T00:40:23;3.60;99.90
7174;DHT22;3628;48.654;8.932;2023-04-03T00:42:51;3.60;99.90
7174;DHT22;3628;48.654;8.932;2023-04-03T00:47:49;3.50;99.90
7174;DHT22;3628;48.654;8.932;2023-04-03T00:50:15;3.40;99.90
7174;DHT22;3628;48.654;8.932;2023-04-03T00:52:41;3.40;99.90
7174;DHT22;3628;48.654;8.932;2023-04-03T00:55:08;3.40;99.90
7174;DHT22;3628;48.654;8.932;2023-04-03T00:57:34;3.40;99.90
7174;DHT22;3628;48.654;8.932;2023-04-03T01:00:06;3.40;99.90
7174;DHT22;3628;48.654;8.932;2023-04-03T01:02:34;3.40;99.90
7174;DHT22;3628;48.654;8.932;2023-04-03T01:05:00;3.40;99.90
7174;DHT22;3628;48.654;8.932;2023-04-03T01:07:30;3.50;99.90
7174;DHT22;3628;48.654;8.932;2023-04-03T01:09:58;3.40;99.90
7174;DHT22;3628;48.654;8.932;2023-04-03T01:12:31;3.40;99.90
7174;DHT22;3628;48.654;8.932;2023-04-03T01:15:09;3.40;99.90
7174;DHT22;3628;48.654;8.932;2023-04-03T01:17:41;3.40;99.90
7174;DHT22;3628;48.654;8.932;2023-04-03T01:21:01;3.40;99.90
7174;DHT22;3628;48.654;8.932;2023-04-03T01:23:41;3.40;99.90
7174;DHT22;3628;48.654;8.932;2023-04-03T01:26:08;3.30;99.90
7174;DHT22;3628;48.654;8.932;2023-04-03T01:28:36;3.20;99.90
7174;DHT22;3628;48.654;8.932;2023-04-03T01:33:46;3.30;99.90
7174;DHT22;3628;48.654;8.932;2023-04-03T01:36:16;3.30;99.90
7174;DHT22;3628;48.654;8.932;2023-04-03T01:38:42;3.20;99.90
7174;DHT22;3628;48.654;8.932;2023-04-03T01:41:07;3.20;99.90
7174;DHT22;3628;48.654;8.932;2023-04-03T01:43:33;3.10;99.90
7174;DHT22;3628;48.654;8.932;2023-04-03T01:45:58;3.10;99.90
7174;DHT22;3628;48.654;8.932;2023-04-03T01:48:24;3.10;99.90
7174;DHT22;3628;48.654;8.932;2023-04-03T01:50:49;3.10;99.90
7174;DHT22;3628;48.654;8.932;2023-04-03T01:53:15;3.10;99.90
7174;DHT22;3628;48.654;8.932;2023-04-03T01:55:41;3.00;99.90
7174;DHT22;3628;48.654;8.932;2023-04-03T01:58:06;3.00;99.90
7174;DHT22;3628;48.654;8.932;2023-04-03T02:00:32;3.00;99.90
7174;DHT22;3628;48.654;8.932;2023-04-03T02:02:57;3.00;99.90
7174;DHT22;3628;48.654;8.932;2023-04-03T02:05:23;2.90;99.90
7174;DHT22;3628;48.654;8.932;2023-04-03T02:07:48;2.90;99.90
7174;DHT22;3628;48.654;8.932;2023-04-03T02:10:14;2.80;99.90
7174;DHT22;3628;48.654;8.932;2023-04-03T02:12:40;2.80;99.90
7174;DHT22;3628;48.654;8.932;2023-04-03T02:15:06;2.80;99.90
7174;DHT22;3628;48.654;8.932;2023-04-03T02:17:32;2.80;99.90
7174;DHT22;3628;48.654;8.932;2023-04-03T02:19:57;2.80;99.90
7174;DHT22;3628;48.654;8.932;2023-04-03T02:22:23;2.80;99.90
7174;DHT22;3628;48.654;8.932;2023-04-03T02:24:48;2.80;99.90
7174;DHT22;3628;48.654;8.932;2023-04-03T02:27:14;2.80;99.90
7174;DHT22;3628;48.654;8.932;2023-04-03T02:29:40;2.80;99.90
7174;DHT22;3628;48.654;8.932;2023-04-03T02:32:05;2.80;99.90
7174;DHT22;3628;48.654;8.932;2023-04-03T02:34:31;2.80;99.90
7174;DHT22;3628;48.654;8.932;2023-04-03T02:36:56;2.80;99.90
7174;DHT22;3628;48.654;8.932;2023-04-03T02:39:22;2.80;99.90
7174;DHT22;3628;48.654;8.932;2023-04-03T02:41:47;2.80;99.90
7174;DHT22;3628;48.654;8.932;2023-04-03T02:44:13;2.80;99.90
7174;DHT22;3628;48.654;8.932;2023-04-03T02:46:39;2.80;99.90
7174;DHT22;3628;48.654;8.932;2023-04-03T02:49:04;2.80;99.90
7174;DHT22;3628;48.654;8.932;2023-04-03T02:51:31;2.80;99.90
7174;DHT22;3628;48.654;8.932;2023-04-03T02:53:56;2.80;99.90
7174;DHT22;3628;48.654;8.932;2023-04-03T02:56:22;2.80;99.90
7174;DHT22;3628;48.654;8.932;2023-04-03T02:58:47;2.80;99.90
7174;DHT22;3628;48.654;8.932;2023-04-03T03:01:13;2.80;99.90
7174;DHT22;3628;48.654;8.932;2023-04-03T03:03:39;2.80;99.90
7174;DHT22;3628;48.654;8.932;2023-04-03T03:06:07;2.90;99.90
7174;DHT22;3628;48.654;8.932;2023-04-03T03:08:33;2.80;99.90
7174;DHT22;3628;48.654;8.932;2023-04-03T03:10:59;2.80;99.90
7174;DHT22;3628;48.654;8.932;2023-04-03T03:13:24;2.80;99.90
7174;DHT22;3628;48.654;8.932;2023-04-03T03:15:50;2.80;99.90
7174;DHT22;3628;48.654;8.932;2023-04-03T03:18:16;2.80;99.90
7174;DHT22;3628;48.654;8.932;2023-04-03T03:20:42;2.80;99.90
7174;DHT22;3628;48.654;8.932;2023-04-03T03:23:08;2.80;99.90
7174;DHT22;3628;48.654;8.932;2023-04-03T03:25:33;2.80;99.90
7174;DHT22;3628;48.654;8.932;2023-04-03T03:28:02;2.80;99.90
7174;DHT22;3628;48.654;8.932;2023-04-03T03:30:28;2.70;99.90
7174;DHT22;3628;48.654;8.932;2023-04-03T03:32:53;2.70;99.90
7174;DHT22;3628;48.654;8.932;2023-04-03T03:35:19;2.70;99.90
7174;DHT22;3628;48.654;8.932;2023-04-03T03:37:44;2.80;99.90
7174;DHT22;3628;48.654;8.932;2023-04-03T03:40:10;2.80;99.90
7174;DHT22;3628;48.654;8.932;2023-04-03T03:42:37;2.70;99.90
7174;DHT22;3628;48.654;8.932;2023-04-03T03:45:03;2.70;99.90
7174;DHT22;3628;48.654;8.932;2023-04-03T03:47:29;2.70;99.90
7174;DHT22;3628;48.654;8.932;2023-04-03T03:49:54;2.70;99.90
7174;DHT22;3628;48.654;8.932;2023-04-03T03:52:20;2.80;99.90
7174;DHT22;3628;48.654;8.932;2023-04-03T03:54:45;2.80;99.90
7174;DHT22;3628;48.654;8.932;2023-04-03T03:57:11;2.80;99.90
7174;DHT22;3628;48.654;8.932;2023-04-03T03:59:36;2.80;99.90
7174;DHT22;3628;48.654;8.932;2023-04-03T04:02:03;2.80;99.90
7174;DHT22;3628;48.654;8.932;2023-04-03T04:04:28;2.70;99.90
7174;DHT22;3628;48.654;8.932;2023-04-03T04:06:54;2.70;99.90
7174;DHT22;3628;48.654;8.932;2023-04-03T04:09:20;2.70;99.90
7174;DHT22;3628;48.654;8.932;2023-04-03T04:11:45;2.70;99.90
7174;DHT22;3628;48.654;8.932;2023-04-03T04:14:11;2.70;99.90
7174;DHT22;3628;48.654;8.932;2023-04-03T04:16:38;2.70;99.90
7174;DHT22;3628;48.654;8.932;2023-04-03T04:19:04;2.70;99.90
7174;DHT22;3628;48.654;8.932;2023-04-03T04:21:30;2.70;99.90
7174;DHT22;3628;48.654;8.932;2023-04-03T04:23:55;2.70;99.90
7174;DHT22;3628;48.654;8.932;2023-04-03T04:26:21;2.70;99.90
7174;DHT22;3628;48.654;8.932;2023-04-03T04:28:46;2.70;99.90
7174;DHT22;3628;48.654;8.932;2023-04-03T04:31:12;2.70;99.90
7174;DHT22;3628;48.654;8.932;2023-04-03T04:33:37;2.70;99.90
7174;DHT22;3628;48.654;8.932;2023-04-03T04:36:03;2.70;99.90
7174;DHT22;3628;48.654;8.932;2023-04-03T04:38:29;2.80;99.90
7174;DHT22;3628;48.654;8.932;2023-04-03T04:40:54;2.70;99.90
7174;DHT22;3628;48.654;8.932;2023-04-03T04:43:20;2.70;99.90
7174;DHT22;3628;48.654;8.932;2023-04-03T04:45:46;2.70;99.90
7174;DHT22;3628;48.654;8.932;2023-04-03T04:48:12;2.70;99.90
7174;DHT22;3628;48.654;8.932;2023-04-03T04:50:37;2.70;99.90
7174;DHT22;3628;48.654;8.932;2023-04-03T04:53:03;2.70;99.90
7174;DHT22;3628;48.654;8.932;2023-04-03T04:55:29;2.70;99.90
7174;DHT22;3628;48.654;8.932;2023-04-03T04:57:55;2.70;99.90
7174;DHT22;3628;48.654;8.932;2023-04-03T05:00:21;2.70;99.90
7174;DHT22;3628;48.654;8.932;2023-04-03T05:02:46;2.80;99.90
7174;DHT22;3628;48.654;8.932;2023-04-03T05:05:12;2.80;99.90
7174;DHT22;3628;48.654;8.932;2023-04-03T05:07:37;2.80;99.90
7174;DHT22;3628;48.654;8.932;2023-04-03T05:10:03;2.80;99.90
7174;DHT22;3628;48.654;8.932;2023-04-03T05:12:29;2.80;99.90
7174;DHT22;3628;48.654;8.932;2023-04-03T05:14:55;2.80;99.90
7174;DHT22;3628;48.654;8.932;2023-04-03T05:17:20;2.80;99.90
7174;DHT22;3628;48.654;8.932;2023-04-03T05:19:46;2.80;99.90
7174;DHT22;3628;48.654;8.932;2023-04-03T05:22:11;2.90;99.90
7174;DHT22;3628;48.654;8.932;2023-04-03T05:24:37;2.90;99.90
7174;DHT22;3628;48.654;8.932;2023-04-03T05:27:03;2.90;99.90
7174;DHT22;3628;48.654;8.932;2023-04-03T05:29:28;2.90;99.90
7174;DHT22;3628;48.654;8.932;2023-04-03T05:31:54;2.90;99.90
7174;DHT22;3628;48.654;8.932;2023-04-03T05:34:19;3.00;99.90
7174;DHT22;3628;48.654;8.932;2023-04-03T05:36:45;2.90;99.90
7174;DHT22;3628;48.654;8.932;2023-04-03T05:39:11;3.00;99.90
7174;DHT22;3628;48.654;8.932;2023-04-03T05:41:37;3.00;99.90
7174;DHT22;3628;48.654;8.932;2023-04-03T05:44:02;3.00;99.90
7174;DHT22;3628;48.654;8.932;2023-04-03T05:46:28;3.00;99.90
7174;DHT22;3628;48.654;8.932;2023-04-03T05:48:53;3.00;99.90
7174;DHT22;3628;48.654;8.932;2023-04-03T05:51:23;3.10;99.90
7174;DHT22;3628;48.654;8.932;2023-04-03T05:53:51;3.20;99.90
7174;DHT22;3628;48.654;8.932;2023-04-03T05:56:18;3.20;99.90
7174;DHT22;3628;48.654;8.932;2023-04-03T05:58:43;3.20;99.90
7174;DHT22;3628;48.654;8.932;2023-04-03T06:01:09;3.20;99.90
7174;DHT22;3628;48.654;8.932;2023-04-03T06:03:34;3.30;99.90
7174;DHT22;3628;48.654;8.932;2023-04-03T06:06:03;3.40;99.90
7174;DHT22;3628;48.654;8.932;2023-04-03T06:08:29;3.40;99.90
7174;DHT22;3628;48.654;8.932;2023-04-03T06:10:54;3.50;99.90
7174;DHT22;3628;48.654;8.932;2023-04-03T06:13:21;3.60;99.90
7174;DHT22;3628;48.654;8.932;2023-04-03T06:15:47;3.60;99.90
7174;DHT22;3628;48.654;8.932;2023-04-03T06:18:12;3.50;99.90
7174;DHT22;3628;48.654;8.932;2023-04-03T06:20:38;3.50;99.90
7174;DHT22;3628;48.654;8.932;2023-04-03T06:23:04;3.60;99.90
7174;DHT22;3628;48.654;8.932;2023-04-03T06:25:29;3.50;99.90
7174;DHT22;3628;48.654;8.932;2023-04-03T06:27:57;3.50;99.90
7174;DHT22;3628;48.654;8.932;2023-04-03T06:30:22;3.50;99.90
7174;DHT22;3628;48.654;8.932;2023-04-03T06:32:48;3.50;99.90
7174;DHT22;3628;48.654;8.932;2023-04-03T06:35:13;3.50;99.90
7174;DHT22;3628;48.654;8.932;2023-04-03T06:37:39;3.50;99.90
7174;DHT22;3628;48.654;8.932;2023-04-03T06:40:05;3.50;99.90
7174;DHT22;3628;48.654;8.932;2023-04-03T06:42:31;3.60;99.90
7174;DHT22;3628;48.654;8.932;2023-04-03T06:44:56;3.50;99.90
7174;DHT22;3628;48.654;8.932;2023-04-03T06:47:22;3.50;99.90
7174;DHT22;3628;48.654;8.932;2023-04-03T06:49:47;3.60;99.90
7174;DHT22;3628;48.654;8.932;2023-04-03T06:52:13;3.60;99.90
7174;DHT22;3628;48.654;8.932;2023-04-03T06:54:40;3.60;99.90
7174;DHT22;3628;48.654;8.932;2023-04-03T06:57:06;3.70;99.90
7174;DHT22;3628;48.654;8.932;2023-04-03T06:59:32;3.70;99.90
7174;DHT22;3628;48.654;8.932;2023-04-03T07:01:58;3.70;99.90
7174;DHT22;3628;48.654;8.932;2023-04-03T07:04:25;3.70;99.90
7174;DHT22;3628;48.654;8.932;2023-04-03T07:06:51;3.80;99.90
7174;DHT22;3628;48.654;8.932;2023-04-03T07:09:17;3.70;99.90
7174;DHT22;3628;48.654;8.932;2023-04-03T07:11:44;3.90;99.90
7174;DHT22;3628;48.654;8.932;2023-04-03T07:14:09;3.90;99.90
7174;DHT22;3628;48.654;8.932;2023-04-03T07:16:35;3.90;99.90
7174;DHT22;3628;48.654;8.932;2023-04-03T07:19:01;4.00;99.90
7174;DHT22;3628;48.654;8.932;2023-04-03T07:21:27;4.20;99.90
7174;DHT22;3628;48.654;8.932;2023-04-03T07:23:53;4.10;99.90
7174;DHT22;3628;48.654;8.932;2023-04-03T07:26:19;4.20;99.90
7174;DHT22;3628;48.654;8.932;2023-04-03T07:28:46;4.30;99.90
7174;DHT22;3628;48.654;8.932;2023-04-03T07:31:14;4.30;99.90
7174;DHT22;3628;48.654;8.932;2023-04-03T07:33:40;4.30;99.90
7174;DHT22;3628;48.654;8.932;2023-04-03T07:36:06;4.40;99.90
7174;DHT22;3628;48.654;8.932;2023-04-03T07:38:36;4.50;99.90
7174;DHT22;3628;48.654;8.932;2023-04-03T07:41:02;4.60;99.90
7174;DHT22;3628;48.654;8.932;2023-04-03T07:43:28;4.60;99.90
7174;DHT22;3628;48.654;8.932;2023-04-03T07:45:54;4.70;99.90
7174;DHT22;3628;48.654;8.932;2023-04-03T07:48:24;4.70;99.90
7174;DHT22;3628;48.654;8.932;2023-04-03T07:50:50;4.80;99.90
7174;DHT22;3628;48.654;8.932;2023-04-03T07:53:16;4.90;99.90
7174;DHT22;3628;48.654;8.932;2023-04-03T07:55:42;4.90;99.90
7174;DHT22;3628;48.654;8.932;2023-04-03T07:58:11;4.90;99.90
7174;DHT22;3628;48.654;8.932;2023-04-03T08:00:37;5.00;99.90
7174;DHT22;3628;48.654;8.932;2023-04-03T08:03:03;4.90;99.90
7174;DHT22;3628;48.654;8.932;2023-04-03T08:05:29;4.90;99.90
7174;DHT22;3628;48.654;8.932;2023-04-03T08:07:54;4.80;99.90
7174;DHT22;3628;48.654;8.932;2023-04-03T08:10:20;5.00;99.90
7174;DHT22;3628;48.654;8.932;2023-04-03T08:12:46;5.00;99.90
7174;DHT22;3628;48.654;8.932;2023-04-03T08:15:12;4.90;99.90
7174;DHT22;3628;48.654;8.932;2023-04-03T08:17:38;5.00;99.90
7174;DHT22;3628;48.654;8.932;2023-04-03T08:20:05;5.20;99.90
7174;DHT22;3628;48.654;8.932;2023-04-03T08:22:32;5.20;99.90
7174;DHT22;3628;48.654;8.932;2023-04-03T08:24:58;5.30;99.90
7174;DHT22;3628;48.654;8.932;2023-04-03T08:27:23;5.30;99.90
7174;DHT22;3628;48.654;8.932;2023-04-03T08:29:49;5.20;99.90
7174;DHT22;3628;48.654;8.932;2023-04-03T08:32:15;5.20;99.90
7174;DHT22;3628;48.654;8.932;2023-04-03T08:34:41;5.30;99.90
7174;DHT22;3628;48.654;8.932;2023-04-03T08:37:06;5.40;99.90
7174;DHT22;3628;48.654;8.932;2023-04-03T08:39:32;5.40;99.90
7174;DHT22;3628;48.654;8.932;2023-04-03T08:41:59;5.50;99.90
7174;DHT22;3628;48.654;8.932;2023-04-03T08:44:47;5.50;99.90
7174;DHT22;3628;48.654;8.932;2023-04-03T08:47:28;5.60;99.90
7174;DHT22;3628;48.654;8.932;2023-04-03T08:50:00;5.70;99.90
7174;DHT22;3628;48.654;8.932;2023-04-03T08:52:45;5.70;99.90
7174;DHT22;3628;48.654;8.932;2023-04-03T08:55:45;5.70;99.90
7174;DHT22;3628;48.654;8.932;2023-04-03T08:58:26;5.70;99.90
7174;DHT22;3628;48.654;8.932;2023-04-03T09:03:20;5.50;99.90
7174;DHT22;3628;48.654;8.932;2023-04-03T09:05:48;5.60;99.90
7174;DHT22;3628;48.654;8.932;2023-04-03T09:11:18;5.70;99.90
7174;DHT22;3628;48.654;8.932;2023-04-03T09:16:39;5.60;99.90
7174;DHT22;3628;48.654;8.932;2023-04-03T09:21:37;5.50;99.90
7174;DHT22;3628;48.654;8.932;2023-04-03T09:24:06;5.60;99.90
7174;DHT22;3628;48.654;8.932;2023-04-03T09:26:53;5.50;99.90
7174;DHT22;3628;48.654;8.932;2023-04-03T09:29:23;5.50;99.90
7174;DHT22;3628;48.654;8.932;2023-04-03T09:31:52;5.50;99.90
7174;DHT22;3628;48.654;8.932;2023-04-03T09:34:28;5.40;99.90
7174;DHT22;3628;48.654;8.932;2023-04-03T09:36:57;5.40;99.90
7174;DHT22;3628;48.654;8.932;2023-04-03T09:39:28;5.40;99.90
7174;DHT22;3628;48.654;8.932;2023-04-03T09:44:31;5.30;99.90
7174;DHT22;3628;48.654;8.932;2023-04-03T09:46:57;5.30;99.90
7174;DHT22;3628;48.654;8.932;2023-04-03T09:49:23;5.40;99.90
7174;DHT22;3628;48.654;8.932;2023-04-03T09:51:49;5.50;99.90
7174;DHT22;3628;48.654;8.932;2023-04-03T09:56:56;5.70;99.90
7174;DHT22;3628;48.654;8.932;2023-04-03T09:59:23;5.60;99.90
7174;DHT22;3628;48.654;8.932;2023-04-03T10:04:40;5.50;99.90
7174;DHT22;3628;48.654;8.932;2023-04-03T10:07:28;5.40;99.90
7174;DHT22;3628;48.654;8.932;2023-04-03T10:09:56;5.30;99.90
7174;DHT22;3628;48.654;8.932;2023-04-03T10:12:23;5.20;99.90
7174;DHT22;3628;48.654;8.932;2023-04-03T10:30:55;5.30;99.90
7174;DHT22;3628;48.654;8.932;2023-04-03T10:33:38;5.50;99.90
7174;DHT22;3628;48.654;8.932;2023-04-03T10:36:18;5.60;99.90
7174;DHT22;3628;48.654;8.932;2023-04-03T10:44:07;5.80;99.90
7174;DHT22;3628;48.654;8.932;2023-04-03T10:49:18;5.90;99.90
7174;DHT22;3628;48.654;8.932;2023-04-03T10:54:39;6.20;99.90
7174;DHT22;3628;48.654;8.932;2023-04-03T10:57:11;6.30;99.90
7174;DHT22;3628;48.654;8.932;2023-04-03T11:02:19;6.00;99.90
7174;DHT22;3628;48.654;8.932;2023-04-03T11:04:51;5.90;99.90
7174;DHT22;3628;48.654;8.932;2023-04-03T11:07:24;5.90;99.90
7174;DHT22;3628;48.654;8.932;2023-04-03T11:10:02;5.80;99.90
7174;DHT22;3628;48.654;8.932;2023-04-03T11:12:39;5.90;99.90
7174;DHT22;3628;48.654;8.932;2023-04-03T11:15:15;5.90;99.90
7174;DHT22;3628;48.654;8.932;2023-04-03T11:17:46;6.20;99.90
7174;DHT22;3628;48.654;8.932;2023-04-03T11:20:30;6.40;99.90
7174;DHT22;3628;48.654;8.932;2023-04-03T11:23:08;6.40;99.90
7174;DHT22;3628;48.654;8.932;2023-04-03T11:25:38;6.30;99.90
7174;DHT22;3628;48.654;8.932;2023-04-03T11:28:12;6.30;99.90
7174;DHT22;3628;48.654;8.932;2023-04-03T11:36:12;6.40;99.90
7174;DHT22;3628;48.654;8.932;2023-04-03T11:38:45;6.40;99.90
7174;DHT22;3628;48.654;8.932;2023-04-03T11:41:29;6.50;99.90
7174;DHT22;3628;48.654;8.932;2023-04-03T11:46:54;6.30;99.90
7174;DHT22;3628;48.654;8.932;2023-04-03T11:49:58;6.00;99.90
7174;DHT22;3628;48.654;8.932;2023-04-03T12:05:48;5.90;99.90
7174;DHT22;3628;48.654;8.932;2023-04-03T12:13:35;6.00;99.90
7174;DHT22;3628;48.654;8.932;2023-04-03T12:16:02;6.00;99.90
7174;DHT22;3628;48.654;8.932;2023-04-03T12:18:43;5.90;99.90
7174;DHT22;3628;48.654;8.932;2023-04-03T12:21:13;5.80;99.90
7174;DHT22;3628;48.654;8.932;2023-04-03T12:24:00;5.80;99.90
7174;DHT22;3628;48.654;8.932;2023-04-03T12:29:10;5.80;99.90
7174;DHT22;3628;48.654;8.932;2023-04-03T12:32:04;5.90;99.90
7174;DHT22;3628;48.654;8.932;2023-04-03T12:37:43;5.90;99.90
7174;DHT22;3628;48.654;8.932;2023-04-03T12:46:02;6.30;99.90
7174;DHT22;3628;48.654;8.932;2023-04-03T12:48:30;6.30;99.90
7174;DHT22;3628;48.654;8.932;2023-04-03T12:50:58;6.30;99.90
7174;DHT22;3628;48.654;8.932;2023-04-03T12:53:44;6.20;99.90
7174;DHT22;3628;48.654;8.932;2023-04-03T12:56:26;6.10;99.90
7174;DHT22;3628;48.654;8.932;2023-04-03T12:58:54;6.00;99.90
7174;DHT22;3628;48.654;8.932;2023-04-03T13:01:23;6.10;99.90
7174;DHT22;3628;48.654;8.932;2023-04-03T13:03:53;6.00;99.90
7174;DHT22;3628;48.654;8.932;2023-04-03T13:08:56;6.10;99.90
7174;DHT22;3628;48.654;8.932;2023-04-03T13:11:30;6.10;99.90
7174;DHT22;3628;48.654;8.932;2023-04-03T13:14:02;6.10;99.90
7174;DHT22;3628;48.654;8.932;2023-04-03T13:16:30;6.10;99.90
7174;DHT22;3628;48.654;8.932;2023-04-03T13:18:57;6.00;99.90
7174;DHT22;3628;48.654;8.932;2023-04-03T13:21:31;6.10;99.90
7174;DHT22;3628;48.654;8.932;2023-04-03T13:23:59;6.20;99.90
7174;DHT22;3628;48.654;8.932;2023-04-03T13:26:29;6.30;99.90
7174;DHT22;3628;48.654;8.932;2023-04-03T13:29:06;6.40;99.90
7174;DHT22;3628;48.654;8.932;2023-04-03T13:31:34;6.40;99.90
7174;DHT22;3628;48.654;8.932;2023-04-03T13:34:06;6.60;99.90
7174;DHT22;3628;48.654;8.932;2023-04-03T13:36:34;6.60;99.90
7174;DHT22;3628;48.654;8.932;2023-04-03T13:39:22;6.60;99.90
7174;DHT22;3628;48.654;8.932;2023-04-03T13:41:50;6.60;99.90
7174;DHT22;3628;48.654;8.932;2023-04-03T13:46:48;6.50;99.90
7174;DHT22;3628;48.654;8.932;2023-04-03T13:49:35;6.50;99.90
7174;DHT22;3628;48.654;8.932;2023-04-03T13:52:17;6.50;99.90
7174;DHT22;3628;48.654;8.932;2023-04-03T13:54:52;6.50;99.90
7174;DHT22;3628;48.654;8.932;2023-04-03T13:57:18;6.40;99.10
7174;DHT22;3628;48.654;8.932;2023-04-03T13:59:44;6.40;99.90
7174;DHT22;3628;48.654;8.932;2023-04-03T14:04:47;6.50;98.70
7174;DHT22;3628;48.654;8.932;2023-04-03T14:07:15;6.60;97.10
7174;DHT22;3628;48.654;8.932;2023-04-03T14:09:41;6.90;96.70
7174;DHT22;3628;48.654;8.932;2023-04-03T14:12:12;6.90;96.00
7174;DHT22;3628;48.654;8.932;2023-04-03T14:14:40;6.90;94.90
7174;DHT22;3628;48.654;8.932;2023-04-03T14:17:17;6.80;95.00
7174;DHT22;3628;48.654;8.932;2023-04-03T14:19:43;6.80;94.90
7174;DHT22;3628;48.654;8.932;2023-04-03T14:22:22;6.80;96.00
7174;DHT22;3628;48.654;8.932;2023-04-03T14:24:49;6.60;96.80
7174;DHT22;3628;48.654;8.932;2023-04-03T14:27:25;6.50;97.80
7174;DHT22;3628;48.654;8.932;2023-04-03T14:29:53;6.50;97.70
7174;DHT22;3628;48.654;8.932;2023-04-03T14:32:21;6.50;95.80
7174;DHT22;3628;48.654;8.932;2023-04-03T14:34:48;6.50;95.90
7174;DHT22;3628;48.654;8.932;2023-04-03T14:37:16;6.40;95.30
7174;DHT22;3628;48.654;8.932;2023-04-03T14:39:42;6.30;93.90
7174;DHT22;3628;48.654;8.932;2023-04-03T14:42:13;6.30;94.30
7174;DHT22;3628;48.654;8.932;2023-04-03T14:44:40;6.30;94.70
7174;DHT22;3628;48.654;8.932;2023-04-03T14:47:12;6.30;96.40
7174;DHT22;3628;48.654;8.932;2023-04-03T14:49:39;6.50;95.70
7174;DHT22;3628;48.654;8.932;2023-04-03T14:52:05;6.50;93.60
7174;DHT22;3628;48.654;8.932;2023-04-03T14:54:31;6.40;93.00
7174;DHT22;3628;48.654;8.932;2023-04-03T14:56:58;6.30;93.00
7174;DHT22;3628;48.654;8.932;2023-04-03T14:59:25;6.20;93.60
7174;DHT22;3628;48.654;8.932;2023-04-03T15:01:51;6.10;92.90
7174;DHT22;3628;48.654;8.932;2023-04-03T15:04:19;6.10;94.70
7174;DHT22;3628;48.654;8.932;2023-04-03T15:06:46;6.00;95.00
7174;DHT22;3628;48.654;8.932;2023-04-03T15:09:30;6.00;94.40
7174;DHT22;3628;48.654;8.932;2023-04-03T15:11:55;6.00;95.90
7174;DHT22;3628;48.654;8.932;2023-04-03T15:14:22;6.00;95.70
7174;DHT22;3628;48.654;8.932;2023-04-03T15:16:48;6.10;95.80
7174;DHT22;3628;48.654;8.932;2023-04-03T15:19:14;6.10;97.10
7174;DHT22;3628;48.654;8.932;2023-04-03T15:21:40;6.20;97.00
7174;DHT22;3628;48.654;8.932;2023-04-03T15:24:05;6.30;95.30
7174;DHT22;3628;48.654;8.932;2023-04-03T15:26:31;6.20;94.50
7174;DHT22;3628;48.654;8.932;2023-04-03T15:28:57;6.10;93.90
7174;DHT22;3628;48.654;8.932;2023-04-03T15:31:23;6.20;94.40
7174;DHT22;3628;48.654;8.932;2023-04-03T15:33:48;6.20;93.50
7174;DHT22;3628;48.654;8.932;2023-04-03T15:36:14;6.40;95.20
7174;DHT22;3628;48.654;8.932;2023-04-03T15:38:39;6.70;95.80
7174;DHT22;3628;48.654;8.932;2023-04-03T15:41:05;7.00;95.80
7174;DHT22;3628;48.654;8.932;2023-04-03T15:43:31;7.40;95.80
7174;DHT22;3628;48.654;8.932;2023-04-03T15:45:59;7.40;93.50
7174;DHT22;3628;48.654;8.932;2023-04-03T15:48:26;7.30;91.70
7174;DHT22;3628;48.654;8.932;2023-04-03T15:50:52;7.10;91.00
7174;DHT22;3628;48.654;8.932;2023-04-03T15:53:17;6.90;91.70
7174;DHT22;3628;48.654;8.932;2023-04-03T15:55:43;6.70;90.80
7174;DHT22;3628;48.654;8.932;2023-04-03T15:58:08;6.60;91.50
7174;DHT22;3628;48.654;8.932;2023-04-03T16:00:35;6.50;91.50
7174;DHT22;3628;48.654;8.932;2023-04-03T16:03:08;6.50;91.70
7174;DHT22;3628;48.654;8.932;2023-04-03T16:05:35;6.50;91.60
7174;DHT22;3628;48.654;8.932;2023-04-03T16:08:01;6.40;91.80
7174;DHT22;3628;48.654;8.932;2023-04-03T16:10:27;6.50;91.60
7174;DHT22;3628;48.654;8.932;2023-04-03T16:12:53;6.40;91.70
7174;DHT22;3628;48.654;8.932;2023-04-03T16:15:19;6.30;91.30
7174;DHT22;3628;48.654;8.932;2023-04-03T16:17:45;6.30;91.00
7174;DHT22;3628;48.654;8.932;2023-04-03T16:20:11;6.40;91.20
7174;DHT22;3628;48.654;8.932;2023-04-03T16:22:40;6.30;91.00
7174;DHT22;3628;48.654;8.932;2023-04-03T16:25:08;6.30;91.20
7174;DHT22;3628;48.654;8.932;2023-04-03T16:27:34;6.30;90.10
7174;DHT22;3628;48.654;8.932;2023-04-03T16:29:59;6.20;90.00
7174;DHT22;3628;48.654;8.932;2023-04-03T16:32:28;6.10;90.30
7174;DHT22;3628;48.654;8.932;2023-04-03T16:34:54;6.10;90.30
7174;DHT22;3628;48.654;8.932;2023-04-03T16:37:20;6.00;88.10
7174;DHT22;3628;48.654;8.932;2023-04-03T16:39:46;5.90;88.20
7174;DHT22;3628;48.654;8.932;2023-04-03T16:42:12;5.90;89.00
7174;DHT22;3628;48.654;8.932;2023-04-03T16:44:37;5.80;90.30
7174;DHT22;3628;48.654;8.932;2023-04-03T16:47:06;5.70;90.20
7174;DHT22;3628;48.654;8.932;2023-04-03T16:49:33;5.70;91.10
7174;DHT22;3628;48.654;8.932;2023-04-03T16:51:59;5.70;91.00
7174;DHT22;3628;48.654;8.932;2023-04-03T16:54:26;5.70;90.60
7174;DHT22;3628;48.654;8.932;2023-04-03T16:56:51;5.70;90.10
7174;DHT22;3628;48.654;8.932;2023-04-03T16:59:17;5.70;90.30
7174;DHT22;3628;48.654;8.932;2023-04-03T17:01:42;5.80;90.60
7174;DHT22;3628;48.654;8.932;2023-04-03T17:04:08;5.90;91.10
7174;DHT22;3628;48.654;8.932;2023-04-03T17:06:34;5.80;89.70
7174;DHT22;3628;48.654;8.932;2023-04-03T17:08:59;5.80;89.90
7174;DHT22;3628;48.654;8.932;2023-04-03T17:11:26;5.80;89.00
7174;DHT22;3628;48.654;8.932;2023-04-03T17:13:52;5.70;90.20
7174;DHT22;3628;48.654;8.932;2023-04-03T17:16:17;5.70;90.50
7174;DHT22;3628;48.654;8.932;2023-04-03T17:18:44;5.70;89.60
7174;DHT22;3628;48.654;8.932;2023-04-03T17:21:11;5.70;88.90
7174;DHT22;3628;48.654;8.932;2023-04-03T17:23:37;5.60;88.80
7174;DHT22;3628;48.654;8.932;2023-04-03T17:26:04;5.40;86.20
7174;DHT22;3628;48.654;8.932;2023-04-03T17:28:30;5.30;87.40
7174;DHT22;3628;48.654;8.932;2023-04-03T17:30:58;5.30;88.10
7174;DHT22;3628;48.654;8.932;2023-04-03T17:33:24;5.30;86.50
7174;DHT22;3628;48.654;8.932;2023-04-03T17:35:50;5.20;86.90
7174;DHT22;3628;48.654;8.932;2023-04-03T17:38:16;5.20;87.10
7174;DHT22;3628;48.654;8.932;2023-04-03T17:40:42;5.20;87.50
7174;DHT22;3628;48.654;8.932;2023-04-03T17:43:10;5.20;90.00
7174;DHT22;3628;48.654;8.932;2023-04-03T17:45:36;5.20;90.20
7174;DHT22;3628;48.654;8.932;2023-04-03T17:48:01;5.10;89.70
7174;DHT22;3628;48.654;8.932;2023-04-03T17:50:27;5.10;89.10
7174;DHT22;3628;48.654;8.932;2023-04-03T17:52:54;5.10;90.90
7174;DHT22;3628;48.654;8.932;2023-04-03T17:55:20;5.10;90.20
7174;DHT22;3628;48.654;8.932;2023-04-03T17:57:45;5.10;91.70
7174;DHT22;3628;48.654;8.932;2023-04-03T18:00:12;5.00;91.10
7174;DHT22;3628;48.654;8.932;2023-04-03T18:02:38;5.00;92.10